sensor_id;sensor_type;location;lat;lon;timestamp;temperature;humidity
8953;DHT22;4511;50.890;8.054;2023-01-23T00:01:25;1.90;99.90
8953;DHT22;4511;50.890;8.054;2023-01-23T00:03:52;1.90;99.90
8953;DHT22;4511;50.890;8.054;2023-01-23T00:06:21;1.90;99.90
8953;DHT22;4511;50.890;8.054;2023-01-23T00:08:47;1.80;99.90
8953;DHT22;4511;50.890;8.054;2023-01-23T00:11:15;1.80;99.90
8953;DHT22;4511;50.890;8.054;2023-01-23T00:13:42;1.90;99.90
8953;DHT22;4511;50.890;8.054;2023-01-23T00:16:09;1.80;99.90
8953;DHT22;4511;50.890;8.054;2023-01-23T00:18:36;1.80;99.90
8953;DHT22;4511;50.890;8.054;2023-01-23T00:21:03;1.90;99.90
8953;DHT22;4511;50.890;8.054;2023-01-23T00:23:32;1.90;99.90
8953;DHT22;4511;50.890;8.054;2023-01-23T00:26:02;1.90;99.90
8953;DHT22;4511;50.890;8.054;2023-01-23T00:28:28;1.90;99.90
8953;DHT22;4511;50.890;8.054;2023-01-23T00:31:00;1.90;99.90
8953;DHT22;4511;50.890;8.054;2023-01-23T00:33:27;1.90;99.90
8953;DHT22;4511;50.890;8.054;2023-01-23T00:35:54;1.90;99.90
8953;DHT22;4511;50.890;8.054;2023-01-23T00:38:20;1.90;99.90
8953;DHT22;4511;50.890;8.054;2023-01-23T00:40:48;1.90;99.90
8953;DHT22;4511;50.890;8.054;2023-01-23T00:43:15;1.90;99.90
8953;DHT22;4511;50.890;8.054;2023-01-23T00:45:41;1.90;99.90
8953;DHT22;4511;50.890;8.054;2023-01-23T00:48:08;1.90;99.90
8953;DHT22;4511;50.890;8.054;2023-01-23T00:50:35;1.90;99.90
8953;DHT22;4511;50.890;8.054;2023-01-23T00:53:01;1.90;99.90
8953;DHT22;4511;50.890;8.054;2023-01-23T00:55:28;1.80;99.90
8953;DHT22;4511;50.890;8.054;2023-01-23T00:57:56;1.90;99.90
8953;DHT22;4511;50.890;8.054;2023-01-23T01:00:22;1.80;99.90
8953;DHT22;4511;50.890;8.054;2023-01-23T01:02:49;1.80;99.90
8953;DHT22;4511;50.890;8.054;2023-01-23T01:05:16;1.80;99.90
8953;DHT22;4511;50.890;8.054;2023-01-23T01:07:42;1.80;99.90
8953;DHT22;4511;50.890;8.054;2023-01-23T01:10:09;1.80;99.90
8953;DHT22;4511;50.890;8.054;2023-01-23T01:12:36;1.80;99.90
8953;DHT22;4511;50.890;8.054;2023-01-23T01:15:05;1.80;99.90
8953;DHT22;4511;50.890;8.054;2023-01-23T01:17:32;1.80;99.90
8953;DHT22;4511;50.890;8.054;2023-01-23T01:19:58;1.90;99.90
8953;DHT22;4511;50.890;8.054;2023-01-23T01:22:25;1.90;99.90
8953;DHT22;4511;50.890;8.054;2023-01-23T01:24:52;1.80;99.90
8953;DHT22;4511;50.890;8.054;2023-01-23T01:27:19;1.90;99.90
8953;DHT22;4511;50.890;8.054;2023-01-23T01:29:45;1.80;99.90
8953;DHT22;4511;50.890;8.054;2023-01-23T01:32:14;1.80;99.90
8953;DHT22;4511;50.890;8.054;2023-01-23T01:34:40;1.80;99.90
8953;DHT22;4511;50.890;8.054;2023-01-23T01:37:07;1.90;99.90
8953;DHT22;4511;50.890;8.054;2023-01-23T01:39:34;1.80;99.90
8953;DHT22;4511;50.890;8.054;2023-01-23T01:42:00;1.90;99.90
8953;DHT22;4511;50.890;8.054;2023-01-23T01:44:27;1.80;99.90
8953;DHT22;4511;50.890;8.054;2023-01-23T01:46:53;1.80;99.90
8953;DHT22;4511;50.890;8.054;2023-01-23T01:49:22;1.80;99.90
8953;DHT22;4511;50.890;8.054;2023-01-23T01:51:51;1.70;99.90
8953;DHT22;4511;50.890;8.054;2023-01-23T01:54:23;1.70;99.90
8953;DHT22;4511;50.890;8.054;2023-01-23T01:56:51;1.70;99.90
8953;DHT22;4511;50.890;8.054;2023-01-23T01:59:19;1.80;99.90
8953;DHT22;4511;50.890;8.054;2023-01-23T02:01:47;1.80;99.90
8953;DHT22;4511;50.890;8.054;2023-01-23T02:04:15;1.80;99.90
8953;DHT22;4511;50.890;8.054;2023-01-23T02:06:43;1.90;99.90
8953;DHT22;4511;50.890;8.054;2023-01-23T02:09:13;1.80;99.90
8953;DHT22;4511;50.890;8.054;2023-01-23T02:11:41;1.80;99.90
8953;DHT22;4511;50.890;8.054;2023-01-23T02:14:08;1.80;99.90
8953;DHT22;4511;50.890;8.054;2023-01-23T02:16:35;1.80;99.90
8953;DHT22;4511;50.890;8.054;2023-01-23T02:19:08;1.70;99.90
8953;DHT22;4511;50.890;8.054;2023-01-23T02:21:36;1.80;99.90
8953;DHT22;4511;50.890;8.054;2023-01-23T02:24:12;1.70;99.90
8953;DHT22;4511;50.890;8.054;2023-01-23T02:26:42;1.80;99.90
8953;DHT22;4511;50.890;8.054;2023-01-23T02:29:09;1.80;99.90
8953;DHT22;4511;50.890;8.054;2023-01-23T02:31:36;1.80;99.90
8953;DHT22;4511;50.890;8.054;2023-01-23T02:34:03;1.80;99.90
8953;DHT22;4511;50.890;8.054;2023-01-23T02:36:31;1.80;99.90
8953;DHT22;4511;50.890;8.054;2023-01-23T02:39:00;1.80;99.90
8953;DHT22;4511;50.890;8.054;2023-01-23T02:41:29;1.80;99.90
8953;DHT22;4511;50.890;8.054;2023-01-23T02:43:57;1.80;99.90
8953;DHT22;4511;50.890;8.054;2023-01-23T02:46:25;1.80;99.90
8953;DHT22;4511;50.890;8.054;2023-01-23T02:48:52;1.70;99.90
8953;DHT22;4511;50.890;8.054;2023-01-23T02:51:18;1.80;99.90
8953;DHT22;4511;50.890;8.054;2023-01-23T02:53:46;1.80;99.90
8953;DHT22;4511;50.890;8.054;2023-01-23T02:56:13;1.90;99.90
8953;DHT22;4511;50.890;8.054;2023-01-23T02:58:40;1.90;99.90
8953;DHT22;4511;50.890;8.054;2023-01-23T03:01:26;1.90;99.90
8953;DHT22;4511;50.890;8.054;2023-01-23T03:03:52;1.90;99.90
8953;DHT22;4511;50.890;8.054;2023-01-23T03:06:21;1.90;99.90
8953;DHT22;4511;50.890;8.054;2023-01-23T03:08:48;1.90;99.90
8953;DHT22;4511;50.890;8.054;2023-01-23T03:11:15;1.90;99.90
8953;DHT22;4511;50.890;8.054;2023-01-23T03:13:42;1.90;99.90
8953;DHT22;4511;50.890;8.054;2023-01-23T03:16:09;2.00;99.90
8953;DHT22;4511;50.890;8.054;2023-01-23T03:18:37;1.90;99.90
8953;DHT22;4511;50.890;8.054;2023-01-23T03:21:04;1.80;99.90
8953;DHT22;4511;50.890;8.054;2023-01-23T03:23:31;1.80;99.90
8953;DHT22;4511;50.890;8.054;2023-01-23T03:25:58;1.80;99.90
8953;DHT22;4511;50.890;8.054;2023-01-23T03:28:25;1.80;99.90
8953;DHT22;4511;50.890;8.054;2023-01-23T03:31:09;1.80;99.90
8953;DHT22;4511;50.890;8.054;2023-01-23T03:33:38;1.80;99.90
8953;DHT22;4511;50.890;8.054;2023-01-23T03:36:08;1.80;99.90
8953;DHT22;4511;50.890;8.054;2023-01-23T03:38:36;1.80;99.90
8953;DHT22;4511;50.890;8.054;2023-01-23T03:41:03;1.80;99.90
8953;DHT22;4511;50.890;8.054;2023-01-23T03:43:48;1.70;99.90
8953;DHT22;4511;50.890;8.054;2023-01-23T03:46:14;1.80;99.90
8953;DHT22;4511;50.890;8.054;2023-01-23T03:48:42;1.80;99.90
8953;DHT22;4511;50.890;8.054;2023-01-23T03:51:09;1.70;99.90
8953;DHT22;4511;50.890;8.054;2023-01-23T03:53:35;1.80;99.90
8953;DHT22;4511;50.890;8.054;2023-01-23T03:56:02;1.80;99.90
8953;DHT22;4511;50.890;8.054;2023-01-23T03:58:29;1.80;99.90
8953;DHT22;4511;50.890;8.054;2023-01-23T04:00:56;1.80;99.90
8953;DHT22;4511;50.890;8.054;2023-01-23T04:03:22;1.80;99.90
8953;DHT22;4511;50.890;8.054;2023-01-23T04:05:55;1.70;99.90
8953;DHT22;4511;50.890;8.054;2023-01-23T04:08:22;1.70;99.90
8953;DHT22;4511;50.890;8.054;2023-01-23T04:10:48;1.70;99.90
8953;DHT22;4511;50.890;8.054;2023-01-23T04:13:15;1.70;99.90
8953;DHT22;4511;50.890;8.054;2023-01-23T04:15:42;1.70;99.90
8953;DHT22;4511;50.890;8.054;2023-01-23T04:18:08;1.70;99.90
8953;DHT22;4511;50.890;8.054;2023-01-23T04:20:35;1.70;99.90
8953;DHT22;4511;50.890;8.054;2023-01-23T04:23:04;1.80;99.90
8953;DHT22;4511;50.890;8.054;2023-01-23T04:25:31;1.70;99.90
8953;DHT22;4511;50.890;8.054;2023-01-23T04:27:57;1.80;99.90
8953;DHT22;4511;50.890;8.054;2023-01-23T04:30:24;1.80;99.90
8953;DHT22;4511;50.890;8.054;2023-01-23T04:32:50;1.90;99.90
8953;DHT22;4511;50.890;8.054;2023-01-23T04:35:17;1.80;99.90
8953;DHT22;4511;50.890;8.054;2023-01-23T04:37:44;1.80;99.90
8953;DHT22;4511;50.890;8.054;2023-01-23T04:40:12;1.80;99.90
8953;DHT22;4511;50.890;8.054;2023-01-23T04:42:39;1.80;99.90
8953;DHT22;4511;50.890;8.054;2023-01-23T04:45:06;1.80;99.90
8953;DHT22;4511;50.890;8.054;2023-01-23T04:47:33;1.90;99.90
8953;DHT22;4511;50.890;8.054;2023-01-23T04:50:00;1.90;99.90
8953;DHT22;4511;50.890;8.054;2023-01-23T04:52:27;1.90;99.90
8953;DHT22;4511;50.890;8.054;2023-01-23T04:54:53;1.90;99.90
8953;DHT22;4511;50.890;8.054;2023-01-23T04:57:21;1.90;99.90
8953;DHT22;4511;50.890;8.054;2023-01-23T04:59:48;1.90;99.90
8953;DHT22;4511;50.890;8.054;2023-01-23T05:02:15;1.90;99.90
8953;DHT22;4511;50.890;8.054;2023-01-23T05:04:41;1.80;99.90
8953;DHT22;4511;50.890;8.054;2023-01-23T05:07:08;1.80;99.90
8953;DHT22;4511;50.890;8.054;2023-01-23T05:09:36;1.80;99.90
8953;DHT22;4511;50.890;8.054;2023-01-23T05:12:03;1.80;99.90
8953;DHT22;4511;50.890;8.054;2023-01-23T05:14:31;1.80;99.90
8953;DHT22;4511;50.890;8.054;2023-01-23T05:16:58;1.70;99.90
8953;DHT22;4511;50.890;8.054;2023-01-23T05:19:25;1.80;99.90
8953;DHT22;4511;50.890;8.054;2023-01-23T05:21:51;1.80;99.90
8953;DHT22;4511;50.890;8.054;2023-01-23T05:24:18;1.80;99.90
8953;DHT22;4511;50.890;8.054;2023-01-23T05:26:47;1.80;99.90
8953;DHT22;4511;50.890;8.054;2023-01-23T05:29:13;1.80;99.90
8953;DHT22;4511;50.890;8.054;2023-01-23T05:31:41;1.80;99.90
8953;DHT22;4511;50.890;8.054;2023-01-23T05:34:08;1.80;99.90
8953;DHT22;4511;50.890;8.054;2023-01-23T05:36:35;1.80;99.90
8953;DHT22;4511;50.890;8.054;2023-01-23T05:39:01;1.80;99.90
8953;DHT22;4511;50.890;8.054;2023-01-23T05:41:28;1.90;99.90
8953;DHT22;4511;50.890;8.054;2023-01-23T05:43:54;2.00;99.90
8953;DHT22;4511;50.890;8.054;2023-01-23T05:46:21;2.30;99.90
8953;DHT22;4511;50.890;8.054;2023-01-23T05:48:49;2.30;99.90
8953;DHT22;4511;50.890;8.054;2023-01-23T05:51:16;2.30;99.90
8953;DHT22;4511;50.890;8.054;2023-01-23T05:53:43;2.20;99.90
8953;DHT22;4511;50.890;8.054;2023-01-23T05:56:10;2.10;99.90
8953;DHT22;4511;50.890;8.054;2023-01-23T05:58:36;2.30;99.90
8953;DHT22;4511;50.890;8.054;2023-01-23T06:01:03;2.30;99.90
8953;DHT22;4511;50.890;8.054;2023-01-23T06:03:30;2.10;99.90
8953;DHT22;4511;50.890;8.054;2023-01-23T06:06:00;2.10;99.90
8953;DHT22;4511;50.890;8.054;2023-01-23T06:08:27;1.90;99.90
8953;DHT22;4511;50.890;8.054;2023-01-23T06:10:53;1.90;99.90
8953;DHT22;4511;50.890;8.054;2023-01-23T06:13:22;1.90;99.90
8953;DHT22;4511;50.890;8.054;2023-01-23T06:15:49;1.70;99.90
8953;DHT22;4511;50.890;8.054;2023-01-23T06:18:16;1.70;99.90
8953;DHT22;4511;50.890;8.054;2023-01-23T06:20:42;1.70;99.90
8953;DHT22;4511;50.890;8.054;2023-01-23T06:23:10;1.70;99.90
8953;DHT22;4511;50.890;8.054;2023-01-23T06:25:37;1.70;99.90
8953;DHT22;4511;50.890;8.054;2023-01-23T06:28:04;1.70;99.90
8953;DHT22;4511;50.890;8.054;2023-01-23T06:30:30;1.60;99.90
8953;DHT22;4511;50.890;8.054;2023-01-23T06:32:57;1.60;99.90
8953;DHT22;4511;50.890;8.054;2023-01-23T06:35:23;1.60;99.90
8953;DHT22;4511;50.890;8.054;2023-01-23T06:37:50;1.60;99.90
8953;DHT22;4511;50.890;8.054;2023-01-23T06:40:18;1.60;99.90
8953;DHT22;4511;50.890;8.054;2023-01-23T06:42:45;1.60;99.90
8953;DHT22;4511;50.890;8.054;2023-01-23T06:45:11;1.70;99.90
8953;DHT22;4511;50.890;8.054;2023-01-23T06:47:38;1.60;99.90
8953;DHT22;4511;50.890;8.054;2023-01-23T06:50:05;1.60;99.90
8953;DHT22;4511;50.890;8.054;2023-01-23T06:52:31;1.60;99.90
8953;DHT22;4511;50.890;8.054;2023-01-23T06:54:58;1.70;99.90
8953;DHT22;4511;50.890;8.054;2023-01-23T06:57:26;1.70;99.90
8953;DHT22;4511;50.890;8.054;2023-01-23T06:59:53;1.60;99.90
8953;DHT22;4511;50.890;8.054;2023-01-23T07:02:19;1.70;99.90
8953;DHT22;4511;50.890;8.054;2023-01-23T07:04:46;1.70;99.90
8953;DHT22;4511;50.890;8.054;2023-01-23T07:07:15;1.70;99.90
8953;DHT22;4511;50.890;8.054;2023-01-23T07:09:41;1.60;99.90
8953;DHT22;4511;50.890;8.054;2023-01-23T07:12:08;1.60;99.90
8953;DHT22;4511;50.890;8.054;2023-01-23T07:14:36;1.50;99.90
8953;DHT22;4511;50.890;8.054;2023-01-23T07:17:03;1.60;99.90
8953;DHT22;4511;50.890;8.054;2023-01-23T07:19:29;1.60;99.90
8953;DHT22;4511;50.890;8.054;2023-01-23T07:21:56;1.70;99.90
8953;DHT22;4511;50.890;8.054;2023-01-23T07:24:22;1.70;99.90
8953;DHT22;4511;50.890;8.054;2023-01-23T07:26:49;1.70;99.90
8953;DHT22;4511;50.890;8.054;2023-01-23T07:29:16;1.70;99.90
8953;DHT22;4511;50.890;8.054;2023-01-23T07:31:43;1.70;99.90
8953;DHT22;4511;50.890;8.054;2023-01-23T07:34:10;1.70;99.90
8953;DHT22;4511;50.890;8.054;2023-01-23T07:36:37;1.70;99.90
8953;DHT22;4511;50.890;8.054;2023-01-23T07:39:03;1.70;99.90
8953;DHT22;4511;50.890;8.054;2023-01-23T07:41:30;1.70;99.90
8953;DHT22;4511;50.890;8.054;2023-01-23T07:43:56;1.80;99.90
8953;DHT22;4511;50.890;8.054;2023-01-23T07:46:23;1.80;99.90
8953;DHT22;4511;50.890;8.054;2023-01-23T07:48:52;1.80;99.90
8953;DHT22;4511;50.890;8.054;2023-01-23T07:51:20;1.80;99.90
8953;DHT22;4511;50.890;8.054;2023-01-23T07:53:47;1.80;99.90
8953;DHT22;4511;50.890;8.054;2023-01-23T07:56:13;1.80;99.90
8953;DHT22;4511;50.890;8.054;2023-01-23T07:58:40;1.80;99.90
8953;DHT22;4511;50.890;8.054;2023-01-23T08:01:07;1.90;99.90
8953;DHT22;4511;50.890;8.054;2023-01-23T08:03:34;1.90;99.90
8953;DHT22;4511;50.890;8.054;2023-01-23T08:06:02;1.90;99.90
8953;DHT22;4511;50.890;8.054;2023-01-23T08:08:28;1.90;99.90
8953;DHT22;4511;50.890;8.054;2023-01-23T08:10:55;1.90;99.90
8953;DHT22;4511;50.890;8.054;2023-01-23T08:13:22;2.00;99.90
8953;DHT22;4511;50.890;8.054;2023-01-23T08:15:49;2.00;99.90
8953;DHT22;4511;50.890;8.054;2023-01-23T08:18:17;2.00;99.90
8953;DHT22;4511;50.890;8.054;2023-01-23T08:20:45;1.90;99.90
8953;DHT22;4511;50.890;8.054;2023-01-23T08:23:18;1.90;99.90
8953;DHT22;4511;50.890;8.054;2023-01-23T08:25:45;1.90;99.90
8953;DHT22;4511;50.890;8.054;2023-01-23T08:28:12;2.00;99.90
8953;DHT22;4511;50.890;8.054;2023-01-23T08:30:38;2.00;99.90
8953;DHT22;4511;50.890;8.054;2023-01-23T08:33:05;2.00;99.90
8953;DHT22;4511;50.890;8.054;2023-01-23T08:35:32;2.10;99.90
8953;DHT22;4511;50.890;8.054;2023-01-23T08:37:58;2.10;99.90
8953;DHT22;4511;50.890;8.054;2023-01-23T08:40:28;2.10;99.90
8953;DHT22;4511;50.890;8.054;2023-01-23T08:42:55;2.10;99.90
8953;DHT22;4511;50.890;8.054;2023-01-23T08:45:22;2.00;99.90
8953;DHT22;4511;50.890;8.054;2023-01-23T08:47:49;2.10;99.90
8953;DHT22;4511;50.890;8.054;2023-01-23T08:50:16;2.10;99.90
8953;DHT22;4511;50.890;8.054;2023-01-23T08:52:43;2.10;99.90
8953;DHT22;4511;50.890;8.054;2023-01-23T08:55:10;2.20;99.90
8953;DHT22;4511;50.890;8.054;2023-01-23T08:57:38;2.20;99.90
8953;DHT22;4511;50.890;8.054;2023-01-23T09:00:05;2.20;99.90
8953;DHT22;4511;50.890;8.054;2023-01-23T09:02:32;2.20;99.90
8953;DHT22;4511;50.890;8.054;2023-01-23T09:04:59;2.20;99.90
8953;DHT22;4511;50.890;8.054;2023-01-23T09:07:25;2.10;99.90
8953;DHT22;4511;50.890;8.054;2023-01-23T09:09:54;2.20;99.90
8953;DHT22;4511;50.890;8.054;2023-01-23T09:12:21;2.20;99.90
8953;DHT22;4511;50.890;8.054;2023-01-23T09:14:49;2.20;99.90
8953;DHT22;4511;50.890;8.054;2023-01-23T09:17:19;2.30;99.90
8953;DHT22;4511;50.890;8.054;2023-01-23T09:19:45;2.30;99.90
8953;DHT22;4511;50.890;8.054;2023-01-23T09:22:12;2.30;99.90
8953;DHT22;4511;50.890;8.054;2023-01-23T09:24:38;2.30;99.90
8953;DHT22;4511;50.890;8.054;2023-01-23T09:27:05;2.20;99.90
8953;DHT22;4511;50.890;8.054;2023-01-23T09:29:32;2.30;99.90
8953;DHT22;4511;50.890;8.054;2023-01-23T09:32:00;2.20;99.90
8953;DHT22;4511;50.890;8.054;2023-01-23T09:34:27;2.30;99.90
8953;DHT22;4511;50.890;8.054;2023-01-23T09:36:54;2.20;99.90
8953;DHT22;4511;50.890;8.054;2023-01-23T09:39:20;2.20;99.90
8953;DHT22;4511;50.890;8.054;2023-01-23T09:41:47;2.20;99.90
8953;DHT22;4511;50.890;8.054;2023-01-23T09:44:15;2.20;99.90
8953;DHT22;4511;50.890;8.054;2023-01-23T09:46:45;2.20;99.90
8953;DHT22;4511;50.890;8.054;2023-01-23T09:49:16;2.20;99.90
8953;DHT22;4511;50.890;8.054;2023-01-23T09:51:46;2.20;99.90
8953;DHT22;4511;50.890;8.054;2023-01-23T09:54:16;2.30;99.90
8953;DHT22;4511;50.890;8.054;2023-01-23T09:56:45;2.30;99.90
8953;DHT22;4511;50.890;8.054;2023-01-23T09:59:24;2.30;99.90
8953;DHT22;4511;50.890;8.054;2023-01-23T10:01:52;2.30;99.90
8953;DHT22;4511;50.890;8.054;2023-01-23T10:04:20;2.40;99.90
8953;DHT22;4511;50.890;8.054;2023-01-23T10:06:53;2.30;99.90
8953;DHT22;4511;50.890;8.054;2023-01-23T10:09:26;2.40;99.90
8953;DHT22;4511;50.890;8.054;2023-01-23T10:11:58;2.50;99.90
8953;DHT22;4511;50.890;8.054;2023-01-23T10:14:38;2.30;99.90
8953;DHT22;4511;50.890;8.054;2023-01-23T10:17:11;2.40;99.90
8953;DHT22;4511;50.890;8.054;2023-01-23T10:19:44;2.50;99.90
8953;DHT22;4511;50.890;8.054;2023-01-23T10:22:23;2.50;99.90
8953;DHT22;4511;50.890;8.054;2023-01-23T10:24:52;2.60;99.90
8953;DHT22;4511;50.890;8.054;2023-01-23T10:27:20;2.60;99.90
8953;DHT22;4511;50.890;8.054;2023-01-23T10:29:48;2.60;99.90
8953;DHT22;4511;50.890;8.054;2023-01-23T10:32:21;2.50;99.90
8953;DHT22;4511;50.890;8.054;2023-01-23T10:34:52;2.60;99.90
8953;DHT22;4511;50.890;8.054;2023-01-23T10:37:20;2.60;99.90
8953;DHT22;4511;50.890;8.054;2023-01-23T10:39:49;2.60;99.90
8953;DHT22;4511;50.890;8.054;2023-01-23T10:42:18;2.60;99.90
8953;DHT22;4511;50.890;8.054;2023-01-23T10:44:46;2.60;99.90
8953;DHT22;4511;50.890;8.054;2023-01-23T10:47:15;2.60;99.90
8953;DHT22;4511;50.890;8.054;2023-01-23T10:49:43;2.60;99.90
8953;DHT22;4511;50.890;8.054;2023-01-23T10:52:28;2.60;99.90
8953;DHT22;4511;50.890;8.054;2023-01-23T10:54:55;2.60;99.90
8953;DHT22;4511;50.890;8.054;2023-01-23T10:57:22;2.70;99.90
8953;DHT22;4511;50.890;8.054;2023-01-23T10:59:52;2.70;99.90
8953;DHT22;4511;50.890;8.054;2023-01-23T11:02:20;2.70;99.90
8953;DHT22;4511;50.890;8.054;2023-01-23T11:04:48;2.70;99.90
8953;DHT22;4511;50.890;8.054;2023-01-23T11:07:16;2.80;99.90
8953;DHT22;4511;50.890;8.054;2023-01-23T11:09:45;2.90;99.90
8953;DHT22;4511;50.890;8.054;2023-01-23T11:12:16;2.90;99.90
8953;DHT22;4511;50.890;8.054;2023-01-23T11:14:43;2.80;99.90
8953;DHT22;4511;50.890;8.054;2023-01-23T11:17:13;2.90;99.90
8953;DHT22;4511;50.890;8.054;2023-01-23T11:19:40;2.80;99.90
8953;DHT22;4511;50.890;8.054;2023-01-23T11:22:21;2.90;99.90
8953;DHT22;4511;50.890;8.054;2023-01-23T11:24:50;2.90;99.90
8953;DHT22;4511;50.890;8.054;2023-01-23T11:27:17;2.90;99.90
8953;DHT22;4511;50.890;8.054;2023-01-23T11:29:51;2.90;99.90
8953;DHT22;4511;50.890;8.054;2023-01-23T11:32:18;3.00;99.90
8953;DHT22;4511;50.890;8.054;2023-01-23T11:34:47;2.90;99.90
8953;DHT22;4511;50.890;8.054;2023-01-23T11:37:16;3.00;99.90
8953;DHT22;4511;50.890;8.054;2023-01-23T11:39:46;2.80;99.90
8953;DHT22;4511;50.890;8.054;2023-01-23T11:42:15;2.90;99.90
8953;DHT22;4511;50.890;8.054;2023-01-23T11:44:44;2.90;99.90
8953;DHT22;4511;50.890;8.054;2023-01-23T11:47:15;2.90;99.90
8953;DHT22;4511;50.890;8.054;2023-01-23T11:49:57;2.90;99.90
8953;DHT22;4511;50.890;8.054;2023-01-23T11:52:27;2.90;99.90
8953;DHT22;4511;50.890;8.054;2023-01-23T11:54:58;3.00;99.90
8953;DHT22;4511;50.890;8.054;2023-01-23T11:57:33;3.00;99.90
8953;DHT22;4511;50.890;8.054;2023-01-23T12:00:04;3.10;99.90
8953;DHT22;4511;50.890;8.054;2023-01-23T12:02:47;3.10;99.90
8953;DHT22;4511;50.890;8.054;2023-01-23T12:05:25;3.10;99.90
8953;DHT22;4511;50.890;8.054;2023-01-23T12:07:56;3.20;99.90
8953;DHT22;4511;50.890;8.054;2023-01-23T12:10:27;3.30;99.90
8953;DHT22;4511;50.890;8.054;2023-01-23T12:13:02;3.30;99.90
8953;DHT22;4511;50.890;8.054;2023-01-23T12:15:34;3.30;99.90
8953;DHT22;4511;50.890;8.054;2023-01-23T12:18:06;3.20;99.90
8953;DHT22;4511;50.890;8.054;2023-01-23T12:20:37;3.10;99.90
8953;DHT22;4511;50.890;8.054;2023-01-23T12:23:11;3.20;99.90
8953;DHT22;4511;50.890;8.054;2023-01-23T12:25:41;3.20;99.90
8953;DHT22;4511;50.890;8.054;2023-01-23T12:28:15;3.30;99.90
8953;DHT22;4511;50.890;8.054;2023-01-23T12:30:48;3.30;99.90
8953;DHT22;4511;50.890;8.054;2023-01-23T12:33:24;3.30;99.90
8953;DHT22;4511;50.890;8.054;2023-01-23T12:35:55;3.30;99.90
8953;DHT22;4511;50.890;8.054;2023-01-23T12:38:28;3.30;99.90
8953;DHT22;4511;50.890;8.054;2023-01-23T12:41:01;3.30;99.90
8953;DHT22;4511;50.890;8.054;2023-01-23T12:43:35;3.40;99.90
8953;DHT22;4511;50.890;8.054;2023-01-23T12:46:04;3.40;99.90
8953;DHT22;4511;50.890;8.054;2023-01-23T12:48:33;3.40;99.90
8953;DHT22;4511;50.890;8.054;2023-01-23T12:51:04;3.30;99.90
8953;DHT22;4511;50.890;8.054;2023-01-23T12:53:32;3.30;99.90
8953;DHT22;4511;50.890;8.054;2023-01-23T12:56:02;3.30;99.90
8953;DHT22;4511;50.890;8.054;2023-01-23T12:58:31;3.30;99.90
8953;DHT22;4511;50.890;8.054;2023-01-23T13:01:03;3.30;99.90
8953;DHT22;4511;50.890;8.054;2023-01-23T13:03:34;3.40;99.90
8953;DHT22;4511;50.890;8.054;2023-01-23T13:06:08;3.40;99.90
8953;DHT22;4511;50.890;8.054;2023-01-23T13:08:44;3.30;99.90
8953;DHT22;4511;50.890;8.054;2023-01-23T13:11:13;3.40;99.90
8953;DHT22;4511;50.890;8.054;2023-01-23T13:14:01;3.30;99.90
8953;DHT22;4511;50.890;8.054;2023-01-23T13:16:30;3.40;99.90
8953;DHT22;4511;50.890;8.054;2023-01-23T13:18:57;3.40;99.90
8953;DHT22;4511;50.890;8.054;2023-01-23T13:22:00;3.40;99.90
8953;DHT22;4511;50.890;8.054;2023-01-23T13:24:29;3.40;99.90
8953;DHT22;4511;50.890;8.054;2023-01-23T13:29:59;3.30;99.90
8953;DHT22;4511;50.890;8.054;2023-01-23T13:32:28;3.20;99.90
8953;DHT22;4511;50.890;8.054;2023-01-23T13:34:55;3.30;99.90
8953;DHT22;4511;50.890;8.054;2023-01-23T13:37:41;3.30;99.90
8953;DHT22;4511;50.890;8.054;2023-01-23T13:40:17;3.30;99.90
8953;DHT22;4511;50.890;8.054;2023-01-23T13:42:44;3.30;99.90
8953;DHT22;4511;50.890;8.054;2023-01-23T13:45:17;3.40;99.90
8953;DHT22;4511;50.890;8.054;2023-01-23T13:47:47;3.40;99.90
8953;DHT22;4511;50.890;8.054;2023-01-23T13:50:34;3.40;99.90
8953;DHT22;4511;50.890;8.054;2023-01-23T13:53:06;3.40;99.90
8953;DHT22;4511;50.890;8.054;2023-01-23T13:55:54;3.40;99.90
8953;DHT22;4511;50.890;8.054;2023-01-23T13:58:38;3.30;99.90
8953;DHT22;4511;50.890;8.054;2023-01-23T14:01:07;3.30;99.90
8953;DHT22;4511;50.890;8.054;2023-01-23T14:03:56;3.40;99.90
8953;DHT22;4511;50.890;8.054;2023-01-23T14:06:41;3.40;99.90
8953;DHT22;4511;50.890;8.054;2023-01-23T14:09:17;3.40;99.90
8953;DHT22;4511;50.890;8.054;2023-01-23T14:11:45;3.30;99.90
8953;DHT22;4511;50.890;8.054;2023-01-23T14:14:13;3.30;99.90
8953;DHT22;4511;50.890;8.054;2023-01-23T14:16:58;3.20;99.90
8953;DHT22;4511;50.890;8.054;2023-01-23T14:19:26;3.30;99.90
8953;DHT22;4511;50.890;8.054;2023-01-23T14:21:54;3.40;99.90
8953;DHT22;4511;50.890;8.054;2023-01-23T14:24:22;3.40;99.90
8953;DHT22;4511;50.890;8.054;2023-01-23T14:26:51;3.40;99.90
8953;DHT22;4511;50.890;8.054;2023-01-23T14:29:18;3.30;99.90
8953;DHT22;4511;50.890;8.054;2023-01-23T14:31:45;3.20;99.90
8953;DHT22;4511;50.890;8.054;2023-01-23T14:34:13;3.20;99.90
8953;DHT22;4511;50.890;8.054;2023-01-23T14:36:42;3.10;99.90
8953;DHT22;4511;50.890;8.054;2023-01-23T14:39:12;3.10;99.90
8953;DHT22;4511;50.890;8.054;2023-01-23T14:41:40;3.10;99.90
8953;DHT22;4511;50.890;8.054;2023-01-23T14:44:08;3.10;99.90
8953;DHT22;4511;50.890;8.054;2023-01-23T14:46:41;3.00;99.90
8953;DHT22;4511;50.890;8.054;2023-01-23T14:49:08;2.90;99.90
8953;DHT22;4511;50.890;8.054;2023-01-23T14:51:35;3.00;99.90
8953;DHT22;4511;50.890;8.054;2023-01-23T14:54:04;2.90;99.90
8953;DHT22;4511;50.890;8.054;2023-01-23T14:56:32;2.80;99.90
8953;DHT22;4511;50.890;8.054;2023-01-23T14:59:00;2.70;99.90
8953;DHT22;4511;50.890;8.054;2023-01-23T15:01:27;2.70;99.90
8953;DHT22;4511;50.890;8.054;2023-01-23T15:03:54;2.70;99.90
8953;DHT22;4511;50.890;8.054;2023-01-23T15:06:22;2.70;99.90
8953;DHT22;4511;50.890;8.054;2023-01-23T15:08:48;2.70;99.90
8953;DHT22;4511;50.890;8.054;2023-01-23T15:11:17;2.70;99.90
8953;DHT22;4511;50.890;8.054;2023-01-23T15:13:51;2.70;99.90
8953;DHT22;4511;50.890;8.054;2023-01-23T15:16:19;2.70;99.90
8953;DHT22;4511;50.890;8.054;2023-01-23T15:18:53;2.80;99.90
8953;DHT22;4511;50.890;8.054;2023-01-23T15:21:26;2.80;99.90
8953;DHT22;4511;50.890;8.054;2023-01-23T15:24:02;2.80;99.90
8953;DHT22;4511;50.890;8.054;2023-01-23T15:26:32;2.70;99.90
8953;DHT22;4511;50.890;8.054;2023-01-23T15:29:00;2.70;99.90
8953;DHT22;4511;50.890;8.054;2023-01-23T15:31:28;2.80;99.90
8953;DHT22;4511;50.890;8.054;2023-01-23T15:33:55;2.70;99.90
8953;DHT22;4511;50.890;8.054;2023-01-23T15:36:24;2.70;99.90
8953;DHT22;4511;50.890;8.054;2023-01-23T15:38:51;2.70;99.90
8953;DHT22;4511;50.890;8.054;2023-01-23T15:41:18;2.90;99.90
8953;DHT22;4511;50.890;8.054;2023-01-23T15:43:46;3.00;99.90
8953;DHT22;4511;50.890;8.054;2023-01-23T15:46:12;2.90;99.90
8953;DHT22;4511;50.890;8.054;2023-01-23T15:48:39;3.00;99.90
8953;DHT22;4511;50.890;8.054;2023-01-23T15:51:06;2.90;99.90
8953;DHT22;4511;50.890;8.054;2023-01-23T15:53:36;2.90;99.90
8953;DHT22;4511;50.890;8.054;2023-01-23T15:56:04;2.70;99.90
8953;DHT22;4511;50.890;8.054;2023-01-23T15:58:30;2.70;99.90
8953;DHT22;4511;50.890;8.054;2023-01-23T16:00:58;2.70;99.90
8953;DHT22;4511;50.890;8.054;2023-01-23T16:03:25;2.60;99.90
8953;DHT22;4511;50.890;8.054;2023-01-23T16:05:52;2.60;99.90
8953;DHT22;4511;50.890;8.054;2023-01-23T16:08:19;2.60;99.90
8953;DHT22;4511;50.890;8.054;2023-01-23T16:10:47;2.50;99.90
8953;DHT22;4511;50.890;8.054;2023-01-23T16:13:14;2.50;99.90
8953;DHT22;4511;50.890;8.054;2023-01-23T16:15:41;2.50;99.90
8953;DHT22;4511;50.890;8.054;2023-01-23T16:18:09;2.50;99.90
8953;DHT22;4511;50.890;8.054;2023-01-23T16:20:36;2.40;99.90
8953;DHT22;4511;50.890;8.054;2023-01-23T16:23:04;2.40;99.90
8953;DHT22;4511;50.890;8.054;2023-01-23T16:25:32;2.40;99.90
8953;DHT22;4511;50.890;8.054;2023-01-23T16:27:59;2.40;99.90
8953;DHT22;4511;50.890;8.054;2023-01-23T16:30:26;2.40;99.90